Search for airport 
image banner adimage banner adimage banner ad
image banner ad

4PA7 - Sheepshead Airport

Located in Lykens, United States

ICAO - 4PA7, IATA -

Data provided by Airmate  

General information

Coordinates: N40°3'32" W76°26'16"
Elevation is 435 feet MSL.
 
View others Airports in Pennsylvania

Operational data

Special qualification required
Current time UTC:
Current local time:
Weather at : KLNS - Lancaster ( 14 km )
METAR: KLNS 091253Z 25005KT 10SM OVC100 09/03 A3011 RMK AO2 SLP197 T00890033
TAF: KLNS 091131Z 0912/1012 28006KT P6SM BKN100 FM091700 18007KT 5SM -RA BR OVC030 FM100500 35007KT 3SM -RA BR BKN009 OVC018 FM101100 34008G15KT P6SM BKN015 OVC025
View NOTAMs / SUP AIP / TFR affecting this airport [VIEW]
Communications frequencies: [VIEW]

Runways:

RWY identifierQFULength (ft)Width (ft)SurfaceLDA (ft)
0778050GRASS
2578050GRASS

Airport contact information

Address: Lykens United States

Satellite view of 4PA7